Time;durP1;ratioP1;P1;durP2;ratioP2;P2;SDS_P1;SDS_P2;PMS_P1;PMS_P2;Temp;Humidity;BMP_temperature;BMP_pressure;BME280_temperature;BME280_humidity;BME280_pressure;Samples;Min_cycle;Max_cycle;Signal;HPM_P1;HPM_P2
2022/11/19 00:01:04;;;;;;;2.70;2.50;;;4.80;99.90;;;;;;5054135;28;20204;-72
2022/11/19 00:03:33;;;;;;;2.77;2.43;;;4.70;99.90;;;;;;5053778;28;20208;-72
2022/11/19 00:06:06;;;;;;;2.43;2.23;;;4.60;99.90;;;;;;5053946;28;20664;-70
2022/11/19 00:08:33;;;;;;;2.67;2.47;;;4.60;99.90;;;;;;5054106;28;20235;-70
2022/11/19 00:11:05;;;;;;;4.47;2.30;;;4.50;99.90;;;;;;5054055;28;20207;-70
2022/11/19 00:13:31;;;;;;;2.50;2.27;;;4.50;99.90;;;;;;5054036;28;20601;-72
2022/11/19 00:16:02;;;;;;;4.03;2.33;;;4.40;99.90;;;;;;5053795;28;20304;-70
2022/11/19 00:18:29;;;;;;;2.60;2.40;;;4.40;99.90;;;;;;5054004;28;20292;-70
2022/11/19 00:20:56;;;;;;;4.17;2.73;;;4.30;99.90;;;;;;5053888;28;20201;-70
2022/11/19 00:23:24;;;;;;;2.90;2.50;;;4.20;99.90;;;;;;5054231;28;20247;-70
2022/11/19 00:25:50;;;;;;;4.87;3.17;;;4.20;99.90;;;;;;5053906;28;20270;-70
2022/11/19 00:28:17;;;;;;;3.27;2.97;;;4.20;99.90;;;;;;5053924;28;20205;-70
2022/11/19 00:30:43;;;;;;;3.37;3.00;;;4.10;99.90;;;;;;5054040;28;20202;-71
2022/11/19 00:33:10;;;;;;;3.97;3.40;;;4.00;99.90;;;;;;5053869;28;20201;-70
2022/11/19 00:35:37;;;;;;;4.00;3.20;;;4.00;99.90;;;;;;5053753;28;20255;-70
2022/11/19 00:38:03;;;;;;;5.43;3.77;;;3.90;99.90;;;;;;5053886;28;20203;-70
2022/11/19 00:40:31;;;;;;;4.37;3.87;;;3.80;99.90;;;;;;5053850;28;20258;-70
2022/11/19 00:45:43;;;;;;;4.73;4.13;;;3.60;99.90;;;;;;5013123;28;20204;-70
2022/11/19 00:48:09;;;;;;;5.40;4.00;;;3.60;99.90;;;;;;5053720;28;20296;-70
2022/11/19 00:50:36;;;;;;;5.00;4.47;;;3.40;99.90;;;;;;5053599;28;20248;-70
2022/11/19 00:53:03;;;;;;;5.03;4.30;;;3.30;99.90;;;;;;5053587;28;20204;-70
2022/11/19 00:55:31;;;;;;;4.90;4.00;;;3.20;99.90;;;;;;5053466;28;20334;-70
2022/11/19 00:57:57;;;;;;;5.23;4.10;;;3.20;99.90;;;;;;5053426;28;20203;-70
2022/11/19 01:00:24;;;;;;;5.67;4.50;;;3.20;99.90;;;;;;5053350;28;20227;-70
2022/11/19 01:02:51;;;;;;;5.60;5.07;;;3.20;99.90;;;;;;5053265;28;20203;-70
2022/11/19 01:05:17;;;;;;;5.53;4.50;;;3.10;99.90;;;;;;5053227;28;20665;-70
2022/11/19 01:07:44;;;;;;;5.27;4.50;;;3.10;99.90;;;;;;5053225;28;20813;-71
2022/11/19 01:10:11;;;;;;;5.53;4.43;;;3.10;99.90;;;;;;5053085;28;20204;-70
2022/11/19 01:13:33;;;;;;;3.63;3.30;;;3.10;99.90;;;;;;5053217;28;20205;-70
2022/11/19 01:15:25;;;;;;;4.23;3.83;;;3.10;99.90;;;;;;5052364;28;20677;-70
2022/11/19 01:17:52;;;;;;;5.63;3.90;;;3.10;99.90;;;;;;5052977;28;20689;-70
2022/11/19 01:20:19;;;;;;;3.90;3.50;;;3.10;99.90;;;;;;5053202;28;20203;-71
2022/11/19 01:22:45;;;;;;;3.33;3.03;;;3.10;99.90;;;;;;5053330;28;20256;-70
2022/11/19 01:25:13;;;;;;;4.57;3.77;;;3.10;99.90;;;;;;5053239;28;20194;-71
2022/11/19 01:27:41;;;;;;;3.97;3.57;;;3.10;99.90;;;;;;5053560;28;20225;-70
2022/11/19 01:30:08;;;;;;;3.87;3.53;;;3.10;99.90;;;;;;5053349;28;20203;-70
2022/11/19 01:32:35;;;;;;;4.10;3.70;;;3.00;99.90;;;;;;5053049;28;20206;-70
2022/11/19 01:35:02;;;;;;;3.90;3.50;;;3.00;99.90;;;;;;5053099;28;20202;-70
2022/11/19 01:37:29;;;;;;;3.80;3.10;;;3.00;99.90;;;;;;5053029;28;20205;-70
2022/11/19 01:39:55;;;;;;;4.57;3.60;;;3.00;99.90;;;;;;5053022;28;20203;-70
2022/11/19 01:45:19;;;;;;;4.20;3.80;;;3.00;99.90;;;;;;5053244;28;20198;-71
2022/11/19 01:47:46;;;;;;;4.27;3.87;;;3.00;99.90;;;;;;5053005;28;20271;-70
2022/11/19 01:50:13;;;;;;;4.00;3.60;;;3.00;99.90;;;;;;5055133;28;20418;-71
2022/11/19 01:52:39;;;;;;;4.17;3.70;;;3.00;99.90;;;;;;5061786;28;20723;-72
2022/11/19 01:55:08;;;;;;;4.10;3.70;;;2.90;99.90;;;;;;5061311;28;20198;-74
2022/11/19 01:57:38;;;;;;;4.40;3.97;;;2.90;99.90;;;;;;5060441;28;20225;-75
2022/11/19 02:00:06;;;;;;;4.30;3.90;;;2.90;99.90;;;;;;5053158;28;20220;-71
2022/11/19 02:02:35;;;;;;;4.10;3.70;;;2.90;99.90;;;;;;5053304;28;20715;-72
2022/11/19 02:05:02;;;;;;;4.37;3.77;;;2.90;99.90;;;;;;5052849;28;20248;-70
2022/11/19 02:07:33;;;;;;;4.33;3.77;;;2.90;99.90;;;;;;5052619;28;20282;-70
2022/11/19 02:10:02;;;;;;;3.50;3.20;;;2.90;99.90;;;;;;5053003;28;20264;-70
2022/11/19 02:12:41;;;;;;;3.90;3.50;;;2.90;99.90;;;;;;5052923;28;20272;-70
2022/11/19 02:15:21;;;;;;;4.10;3.70;;;2.90;99.90;;;;;;5052720;28;20202;-71
2022/11/19 02:18:08;;;;;;;4.20;3.77;;;2.90;99.90;;;;;;5052742;28;20205;-71
2022/11/19 02:21:03;;;;;;;5.33;4.47;;;2.90;99.90;;;;;;5053474;28;20572;-72
2022/11/19 02:24:24;;;;;;;5.07;4.57;;;2.90;99.90;;;;;;5050797;28;20202;-71
2022/11/19 02:27:25;;;;;;;4.50;4.10;;;2.80;99.90;;;;;;5055671;28;20226;-71
2022/11/19 02:30:04;;;;;;;4.77;4.07;;;2.90;99.90;;;;;;5056554;28;20666;-71
2022/11/19 02:32:34;;;;;;;5.47;4.30;;;2.90;99.90;;;;;;5056625;28;20202;-71
2022/11/19 02:35:11;;;;;;;4.87;4.37;;;2.90;99.90;;;;;;5056757;28;20233;-72
2022/11/19 02:37:44;;;;;;;5.43;4.93;;;2.90;99.90;;;;;;5056726;28;20293;-71
2022/11/19 02:40:16;;;;;;;6.63;5.53;;;2.80;99.90;;;;;;5056318;28;20201;-71
2022/11/19 02:42:50;;;;;;;6.53;5.50;;;2.80;99.90;;;;;;5056782;28;20202;-71
2022/11/19 02:45:22;;;;;;;7.03;6.20;;;2.80;99.90;;;;;;5056657;28;20256;-71
2022/11/19 02:47:52;;;;;;;7.27;6.40;;;2.80;99.90;;;;;;5056200;28;20283;-72
2022/11/19 02:50:23;;;;;;;7.20;6.13;;;2.70;99.90;;;;;;5056293;28;20653;-71
2022/11/19 02:52:49;;;;;;;8.07;6.53;;;2.70;99.90;;;;;;5055969;28;20264;-70
2022/11/19 02:55:18;;;;;;;7.77;6.73;;;2.60;99.90;;;;;;5055722;28;20247;-71
2022/11/19 02:57:51;;;;;;;7.83;6.70;;;2.60;99.90;;;;;;5055901;28;20202;-71
2022/11/19 03:05:57;;;;;;;7.60;6.40;;;2.50;99.90;;;;;;5055747;28;20556;-70
2022/11/19 03:08:24;;;;;;;7.93;5.97;;;2.50;99.90;;;;;;5055373;28;20746;-70
2022/11/19 03:11:02;;;;;;;8.00;6.50;;;2.40;99.90;;;;;;5055522;28;20608;-70
2022/11/19 03:16:43;;;;;;;6.97;5.60;;;2.40;99.90;;;;;;5055431;28;20343;-70
2022/11/19 03:19:31;;;;;;;6.57;5.17;;;2.20;99.90;;;;;;5055300;28;20227;-70
2022/11/19 03:22:02;;;;;;;8.13;6.33;;;2.20;99.90;;;;;;5055295;28;20216;-70
2022/11/19 03:24:33;;;;;;;7.13;5.70;;;2.20;99.90;;;;;;5055096;28;20251;-71
2022/11/19 03:27:05;;;;;;;5.63;4.80;;;2.30;99.90;;;;;;5055354;28;20271;-71
2022/11/19 03:29:36;;;;;;;5.87;4.90;;;2.30;99.90;;;;;;5055207;28;20201;-71
2022/11/19 03:32:08;;;;;;;6.53;5.30;;;2.20;99.90;;;;;;5055095;28;20198;-71
2022/11/19 03:34:37;;;;;;;7.20;5.63;;;2.20;99.90;;;;;;5054891;28;20240;-71
2022/11/19 03:37:07;;;;;;;8.03;6.17;;;2.20;99.90;;;;;;5054111;28;20331;-71
2022/11/19 03:39:36;;;;;;;7.50;6.23;;;2.20;99.90;;;;;;5054975;28;20194;-72
2022/11/19 03:42:06;;;;;;;8.37;6.50;;;2.10;99.90;;;;;;5054793;28;20197;-71
2022/11/19 03:44:37;;;;;;;7.30;6.17;;;2.10;99.90;;;;;;5054737;28;20204;-71
2022/11/19 03:47:13;;;;;;;8.03;5.97;;;2.10;99.90;;;;;;5055066;28;20225;-71
2022/11/19 03:49:44;;;;;;;8.57;6.80;;;2.10;99.90;;;;;;5054569;28;20228;-71
2022/11/19 03:52:13;;;;;;;8.20;6.67;;;2.10;99.90;;;;;;5054749;28;20206;-71
2022/11/19 03:54:40;;;;;;;8.97;6.80;;;2.10;99.90;;;;;;5056962;28;20201;-78
2022/11/19 03:57:10;;;;;;;8.27;6.83;;;2.10;99.90;;;;;;5058075;28;20198;-71
2022/11/19 03:59:37;;;;;;;8.43;6.40;;;2.10;99.90;;;;;;5059189;28;20244;-73
2022/11/19 04:02:06;;;;;;;8.47;6.83;;;2.00;99.90;;;;;;5060541;28;20592;-71
2022/11/19 04:04:36;;;;;;;9.77;7.67;;;2.10;99.90;;;;;;5059987;28;20606;-73
2022/11/19 04:07:04;;;;;;;8.17;6.40;;;2.10;99.90;;;;;;5057635;28;20354;-74
2022/11/19 04:09:30;;;;;;;9.93;7.23;;;2.10;99.90;;;;;;5054916;28;20228;-71
2022/11/19 04:11:57;;;;;;;9.03;7.33;;;2.10;99.90;;;;;;5054545;28;20201;-71
2022/11/19 04:14:24;;;;;;;10.80;7.67;;;2.10;99.90;;;;;;5054575;28;20193;-71
2022/11/19 04:16:50;;;;;;;10.13;7.30;;;2.10;99.90;;;;;;5054602;28;20206;-70
2022/11/19 04:19:18;;;;;;;9.10;6.80;;;2.10;99.90;;;;;;5053939;28;20223;-71
2022/11/19 04:21:45;;;;;;;9.93;7.40;;;2.10;99.90;;;;;;5054202;28;20206;-70
2022/11/19 04:24:12;;;;;;;12.07;7.93;;;2.10;99.90;;;;;;5053956;28;20197;-70
2022/11/19 04:26:39;;;;;;;9.93;7.87;;;2.10;99.90;;;;;;5053783;28;20197;-70
2022/11/19 04:29:06;;;;;;;11.83;8.70;;;2.00;99.90;;;;;;5054011;28;20213;-70
2022/11/19 04:31:32;;;;;;;11.90;8.47;;;2.00;99.90;;;;;;5054049;28;20252;-70
2022/11/19 04:33:59;;;;;;;12.67;9.67;;;2.00;99.90;;;;;;5053951;28;20197;-70
2022/11/19 04:36:27;;;;;;;13.60;9.63;;;1.90;99.90;;;;;;5053883;28;20279;-70
2022/11/19 04:38:54;;;;;;;14.57;9.33;;;2.00;99.90;;;;;;5053831;28;20255;-70
2022/11/19 04:41:20;;;;;;;14.23;9.70;;;2.00;99.90;;;;;;5053670;28;20610;-70
2022/11/19 04:43:47;;;;;;;14.07;10.10;;;2.00;99.90;;;;;;5053565;28;20603;-70
2022/11/19 04:46:13;;;;;;;14.97;9.67;;;2.00;99.90;;;;;;5053701;28;20259;-70
2022/11/19 04:48:40;;;;;;;14.20;9.87;;;1.90;99.90;;;;;;5052728;28;20701;-71
2022/11/19 04:51:07;;;;;;;14.83;10.73;;;1.90;99.90;;;;;;5053227;28;20201;-71
2022/11/19 04:53:35;;;;;;;14.73;10.57;;;1.90;99.90;;;;;;5053573;28;20251;-71
2022/11/19 04:56:02;;;;;;;15.70;10.90;;;1.80;99.90;;;;;;5053547;28;20198;-71
2022/11/19 04:58:28;;;;;;;16.87;10.57;;;1.90;99.90;;;;;;5053752;28;20198;-71
2022/11/19 05:00:55;;;;;;;16.20;11.27;;;1.90;99.90;;;;;;5053682;28;20615;-71
2022/11/19 05:03:21;;;;;;;16.17;11.30;;;1.90;99.90;;;;;;5053385;28;20677;-70
2022/11/19 05:05:48;;;;;;;16.80;11.70;;;1.90;99.90;;;;;;5053394;28;20201;-71
2022/11/19 05:08:15;;;;;;;16.60;11.00;;;1.90;99.90;;;;;;5053209;28;20233;-71
2022/11/19 05:10:44;;;;;;;16.83;11.67;;;1.90;99.90;;;;;;5053177;28;20244;-71
2022/11/19 05:13:11;;;;;;;14.83;9.93;;;1.90;99.90;;;;;;5053464;28;20254;-71
2022/11/19 05:15:37;;;;;;;16.17;11.20;;;1.80;99.90;;;;;;5053290;28;20235;-71
2022/11/19 05:18:04;;;;;;;15.00;10.80;;;1.90;99.90;;;;;;5053161;28;20197;-71
2022/11/19 05:20:31;;;;;;;15.67;10.83;;;1.80;99.90;;;;;;5053243;28;20197;-71
2022/11/19 05:22:58;;;;;;;15.83;11.20;;;1.80;99.90;;;;;;5053053;28;20671;-71
2022/11/19 05:25:24;;;;;;;15.83;11.13;;;1.80;99.90;;;;;;5052978;28;20200;-71
2022/11/19 05:27:53;;;;;;;14.77;10.57;;;1.80;99.90;;;;;;5053084;28;20256;-71
2022/11/19 05:30:19;;;;;;;14.40;10.70;;;1.80;99.90;;;;;;5053099;28;20201;-71
2022/11/19 05:32:47;;;;;;;14.27;9.93;;;1.80;99.90;;;;;;5053048;28;20205;-71
2022/11/19 05:35:14;;;;;;;16.17;10.97;;;1.80;99.90;;;;;;5052841;28;20197;-71
2022/11/19 05:37:40;;;;;;;16.03;11.10;;;1.80;99.90;;;;;;5052840;28;20209;-71
2022/11/19 05:40:08;;;;;;;15.30;10.83;;;1.90;99.90;;;;;;5052707;28;20205;-71
2022/11/19 05:42:35;;;;;;;16.13;10.80;;;1.90;99.90;;;;;;5052925;28;20197;-71
2022/11/19 05:45:03;;;;;;;15.17;10.67;;;1.80;99.90;;;;;;5052931;28;20243;-71
2022/11/19 05:47:30;;;;;;;13.77;9.90;;;1.90;99.90;;;;;;5052748;28;20275;-71
2022/11/19 05:49:56;;;;;;;15.43;10.97;;;1.90;99.90;;;;;;5052848;28;20259;-71
2022/11/19 05:52:23;;;;;;;13.87;10.20;;;1.80;99.90;;;;;;5053430;28;20209;-71
2022/11/19 05:54:50;;;;;;;13.27;9.60;;;1.80;99.90;;;;;;5053338;28;20236;-71
2022/11/19 05:57:16;;;;;;;13.53;10.03;;;1.90;99.90;;;;;;5052768;28;20247;-71
2022/11/19 05:59:43;;;;;;;13.00;9.33;;;1.90;99.90;;;;;;5052715;28;20198;-71
2022/11/19 06:02:11;;;;;;;12.07;9.20;;;1.80;99.90;;;;;;5056365;28;20193;-72
2022/11/19 06:04:38;;;;;;;11.60;9.00;;;1.90;99.90;;;;;;5056653;28;20201;-71
2022/11/19 06:07:05;;;;;;;11.17;8.10;;;1.80;99.90;;;;;;5056359;28;20225;-72
2022/11/19 06:09:32;;;;;;;11.83;8.67;;;1.80;99.90;;;;;;5057388;28;20217;-71
2022/11/19 06:11:59;;;;;;;11.33;9.07;;;1.90;99.90;;;;;;5056929;28;20202;-71
2022/11/19 06:14:27;;;;;;;11.83;8.43;;;1.90;99.90;;;;;;5056637;28;20198;-71
2022/11/19 06:16:55;;;;;;;10.87;8.00;;;1.90;99.90;;;;;;5056429;28;20194;-71
2022/11/19 06:19:24;;;;;;;11.27;8.60;;;1.90;99.90;;;;;;5056222;28;20210;-71
2022/11/19 06:21:51;;;;;;;11.83;8.67;;;2.00;99.90;;;;;;5056743;28;20198;-72
2022/11/19 06:24:18;;;;;;;11.83;9.07;;;1.90;99.90;;;;;;5056412;28;20263;-71
2022/11/19 06:26:45;;;;;;;12.77;9.17;;;1.90;99.90;;;;;;5056301;28;20197;-71
2022/11/19 06:29:13;;;;;;;10.17;8.03;;;2.00;99.90;;;;;;5056235;28;20755;-71
2022/11/19 06:31:40;;;;;;;11.27;8.30;;;1.90;99.90;;;;;;5056058;28;20201;-71
2022/11/19 06:34:07;;;;;;;12.40;8.97;;;1.90;99.90;;;;;;5056020;28;20236;-71
2022/11/19 06:36:35;;;;;;;11.07;8.83;;;1.90;99.90;;;;;;5056010;28;20534;-71
2022/11/19 06:39:01;;;;;;;11.00;8.40;;;2.00;99.90;;;;;;5056146;28;20656;-71
2022/11/19 06:41:28;;;;;;;11.27;8.33;;;2.00;99.90;;;;;;5055991;28;20243;-71
2022/11/19 06:43:54;;;;;;;13.50;9.57;;;2.00;99.90;;;;;;5056050;28;20228;-71
2022/11/19 06:46:21;;;;;;;12.00;8.77;;;2.00;99.90;;;;;;5055832;28;20202;-71
2022/11/19 06:48:48;;;;;;;11.47;8.60;;;2.10;99.90;;;;;;5055768;28;20692;-72
2022/11/19 06:51:14;;;;;;;10.97;8.53;;;2.10;99.90;;;;;;5055756;28;20194;-71
2022/11/19 06:53:42;;;;;;;11.07;8.83;;;2.10;99.90;;;;;;5055837;28;20198;-71
2022/11/19 06:56:09;;;;;;;13.50;9.90;;;2.10;99.90;;;;;;5055717;28;20197;-71
2022/11/19 06:58:36;;;;;;;12.40;9.67;;;2.10;99.90;;;;;;5055810;28;20224;-71
2022/11/19 07:01:02;;;;;;;14.30;8.93;;;2.10;99.90;;;;;;5055633;28;20228;-71
2022/11/19 07:03:29;;;;;;;12.27;8.93;;;2.10;99.90;;;;;;5055495;28;20653;-72
2022/11/19 07:05:58;;;;;;;11.57;9.20;;;2.10;99.90;;;;;;5055690;28;20194;-71
2022/11/19 07:08:26;;;;;;;10.93;8.17;;;2.10;99.90;;;;;;5055728;28;20234;-71
2022/11/19 07:10:55;;;;;;;12.33;8.90;;;2.10;99.90;;;;;;5055493;28;20206;-72
2022/11/19 07:13:22;;;;;;;12.03;9.10;;;2.10;99.90;;;;;;5054361;28;20289;-71
2022/11/19 07:15:48;;;;;;;11.00;8.77;;;2.10;99.90;;;;;;5055154;28;20657;-71
2022/11/19 07:18:15;;;;;;;11.70;8.90;;;2.10;99.90;;;;;;5059788;28;20654;-72
2022/11/19 07:20:44;;;;;;;12.27;8.87;;;2.10;99.90;;;;;;5063453;28;20228;-74
2022/11/19 07:23:12;;;;;;;12.23;9.40;;;2.10;99.90;;;;;;5064107;28;20198;-72
2022/11/19 07:25:38;;;;;;;12.70;9.47;;;2.20;99.90;;;;;;5062404;28;20224;-73
2022/11/19 07:28:07;;;;;;;14.73;10.37;;;2.20;99.90;;;;;;5057428;28;20625;-72
2022/11/19 07:30:34;;;;;;;14.87;10.13;;;2.20;99.90;;;;;;5056523;28;20202;-72
2022/11/19 07:33:01;;;;;;;15.03;10.70;;;2.20;99.90;;;;;;5055496;28;20699;-72
2022/11/19 07:35:27;;;;;;;15.10;11.37;;;2.20;99.90;;;;;;5055246;28;20205;-71
2022/11/19 07:37:54;;;;;;;16.87;10.90;;;2.20;99.90;;;;;;5054991;28;20206;-71
2022/11/19 07:40:21;;;;;;;12.37;10.00;;;2.20;99.90;;;;;;5054858;28;20707;-71
2022/11/19 07:42:49;;;;;;;15.33;11.77;;;2.10;99.90;;;;;;5054754;28;20202;-72
2022/11/19 07:45:19;;;;;;;13.57;10.53;;;2.10;99.90;;;;;;5055021;28;20627;-72
2022/11/19 07:47:46;;;;;;;14.30;10.87;;;2.10;99.90;;;;;;5054877;28;20198;-72
2022/11/19 07:50:14;;;;;;;13.23;10.10;;;2.00;99.90;;;;;;5054725;28;20202;-71
2022/11/19 07:52:40;;;;;;;12.17;9.07;;;2.00;99.90;;;;;;5054650;28;20235;-72
2022/11/19 07:55:08;;;;;;;12.07;9.43;;;2.00;99.90;;;;;;5054547;28;20198;-72
2022/11/19 07:57:35;;;;;;;12.47;9.17;;;2.00;99.90;;;;;;5054505;28;20265;-72
2022/11/19 08:00:02;;;;;;;12.67;8.47;;;2.00;99.90;;;;;;5054544;28;20231;-72
2022/11/19 08:02:30;;;;;;;9.40;7.27;;;1.90;99.90;;;;;;5054684;28;20722;-72
2022/11/19 08:04:56;;;;;;;10.43;7.93;;;2.00;99.90;;;;;;5054666;28;20236;-71
2022/11/19 08:07:23;;;;;;;10.37;7.73;;;1.90;99.90;;;;;;5054199;28;20256;-72
2022/11/19 08:09:50;;;;;;;8.50;6.63;;;1.80;99.90;;;;;;5054085;28;20229;-72
2022/11/19 08:12:16;;;;;;;7.73;6.20;;;1.80;99.90;;;;;;5054448;28;20260;-72
2022/11/19 08:14:43;;;;;;;6.70;5.80;;;1.70;99.90;;;;;;5054288;28;20727;-72
2022/11/19 08:19:55;;;;;;;7.60;5.83;;;1.60;99.90;;;;;;5054599;28;20200;-72
2022/11/19 08:22:22;;;;;;;6.97;5.70;;;1.50;99.90;;;;;;5054050;28;20221;-72
2022/11/19 08:24:48;;;;;;;8.63;5.90;;;1.50;99.90;;;;;;5054109;28;20206;-72
2022/11/19 08:27:16;;;;;;;9.00;6.93;;;1.50;99.90;;;;;;5054736;28;20202;-72
2022/11/19 08:29:42;;;;;;;7.87;6.53;;;1.50;99.90;;;;;;5054561;28;20233;-72
2022/11/19 08:32:09;;;;;;;7.93;6.47;;;1.60;99.90;;;;;;5054446;28;20596;-72
2022/11/19 08:34:35;;;;;;;7.10;5.73;;;1.60;99.90;;;;;;5054197;28;20229;-72
2022/11/19 08:37:03;;;;;;;8.27;6.30;;;1.60;99.90;;;;;;5054043;28;20247;-72
2022/11/19 08:39:30;;;;;;;8.30;6.40;;;1.60;99.90;;;;;;5054562;28;20205;-72
2022/11/19 08:44:44;;;;;;;8.73;6.47;;;1.60;99.90;;;;;;5020831;28;20236;-72
2022/11/19 08:47:10;;;;;;;7.73;6.20;;;1.60;99.90;;;;;;5055255;28;20255;-72
2022/11/19 08:49:37;;;;;;;8.93;7.00;;;1.60;99.90;;;;;;5056336;28;20565;-72
2022/11/19 08:52:05;;;;;;;9.67;7.63;;;1.70;99.90;;;;;;5057458;28;20206;-72
2022/11/19 08:54:32;;;;;;;10.77;7.90;;;1.70;99.90;;;;;;5060935;28;20308;-72
2022/11/19 08:56:58;;;;;;;10.17;8.43;;;1.70;99.90;;;;;;5062817;28;20269;-71
2022/11/19 08:59:25;;;;;;;11.00;7.77;;;1.70;99.90;;;;;;5062120;28;20193;-72
2022/11/19 09:01:52;;;;;;;10.93;8.50;;;1.70;99.90;;;;;;5060287;28;20198;-72
2022/11/19 09:04:18;;;;;;;11.47;8.03;;;1.70;99.90;;;;;;5060163;28;20606;-71
2022/11/19 09:06:45;;;;;;;11.93;8.93;;;1.70;99.90;;;;;;5059975;28;20198;-71
2022/11/19 09:09:13;;;;;;;11.80;9.53;;;1.70;99.90;;;;;;5060311;28;20233;-72
2022/11/19 09:11:40;;;;;;;12.30;9.40;;;1.70;99.90;;;;;;5062815;28;20197;-72
2022/11/19 09:14:06;;;;;;;14.23;9.70;;;1.60;99.90;;;;;;5061069;28;20232;-72
2022/11/19 09:16:33;;;;;;;12.23;9.40;;;1.70;99.90;;;;;;5057377;28;20197;-72
2022/11/19 09:19:01;;;;;;;13.77;10.03;;;1.70;99.90;;;;;;5056992;28;20232;-72
2022/11/19 09:21:27;;;;;;;14.07;10.90;;;1.70;99.90;;;;;;5054463;28;20198;-71
2022/11/19 09:23:54;;;;;;;16.40;12.17;;;1.80;99.90;;;;;;5054127;28;20251;-72
2022/11/19 09:26:22;;;;;;;14.80;11.67;;;1.80;99.90;;;;;;5053870;28;20197;-71
2022/11/19 09:28:50;;;;;;;14.37;10.50;;;1.80;99.90;;;;;;5053005;28;20217;-71
2022/11/19 09:31:18;;;;;;;15.73;11.63;;;1.90;99.90;;;;;;5053436;28;20210;-71
2022/11/19 09:33:47;;;;;;;18.07;12.83;;;1.80;99.90;;;;;;5053464;28;20678;-72
2022/11/19 09:36:15;;;;;;;15.47;11.93;;;1.80;99.90;;;;;;5057392;28;20201;-72
2022/11/19 09:38:42;;;;;;;14.90;11.30;;;1.80;99.90;;;;;;5059711;28;20210;-72
2022/11/19 09:41:28;;;;;;;14.00;10.60;;;1.80;99.90;;;;;;5059536;28;20249;-72
2022/11/19 09:44:03;;;;;;;15.50;10.87;;;1.80;99.90;;;;;;5059822;28;20231;-71
2022/11/19 09:46:42;;;;;;;15.97;10.97;;;1.80;99.90;;;;;;5059728;28;20204;-72
2022/11/19 09:49:13;;;;;;;14.57;11.13;;;1.80;99.90;;;;;;5059476;28;20688;-71
2022/11/19 09:51:47;;;;;;;14.07;10.63;;;1.90;99.90;;;;;;5059660;28;20254;-72
2022/11/19 09:54:16;;;;;;;14.93;12.00;;;2.00;99.90;;;;;;5059579;28;20206;-71
2022/11/19 09:56:46;;;;;;;15.40;11.03;;;2.00;99.90;;;;;;5059803;28;20201;-71
2022/11/19 09:59:24;;;;;;;13.50;10.60;;;2.00;99.90;;;;;;5059700;28;20267;-72
2022/11/19 10:01:50;;;;;;;15.10;10.57;;;2.10;99.90;;;;;;5059608;28;20197;-71
2022/11/19 10:04:22;;;;;;;13.63;10.43;;;2.10;99.90;;;;;;5059432;28;20649;-72
2022/11/19 10:07:01;;;;;;;15.07;11.27;;;2.20;99.90;;;;;;5059804;28;20224;-71
2022/11/19 10:09:42;;;;;;;14.93;10.33;;;2.30;99.90;;;;;;5059557;28;20229;-73
2022/11/19 10:12:26;;;;;;;13.00;10.20;;;2.40;99.90;;;;;;5059797;28;20202;-73
2022/11/19 10:15:13;;;;;;;13.20;10.20;;;2.60;99.90;;;;;;5059598;28;20198;-72
2022/11/19 10:17:47;;;;;;;13.90;10.03;;;2.60;99.90;;;;;;5059867;28;20339;-73
2022/11/19 10:20:29;;;;;;;12.83;10.70;;;2.50;99.90;;;;;;5060184;28;20255;-73
2022/11/19 10:23:00;;;;;;;13.87;10.27;;;2.40;99.90;;;;;;5060563;28;20197;-73
2022/11/19 10:25:31;;;;;;;14.60;10.20;;;2.40;99.90;;;;;;5060084;28;20209;-73
2022/11/19 10:28:08;;;;;;;14.40;10.90;;;2.30;99.90;;;;;;5060375;28;20202;-72
2022/11/19 10:30:35;;;;;;;11.57;9.80;;;2.30;99.90;;;;;;5060464;28;20221;-73
2022/11/19 10:33:07;;;;;;;13.57;10.27;;;2.30;99.90;;;;;;5060357;28;20201;-73
2022/11/19 10:35:38;;;;;;;12.90;10.13;;;2.30;99.90;;;;;;5059938;28;20652;-72
2022/11/19 10:38:11;;;;;;;14.03;10.43;;;2.30;99.90;;;;;;5059822;28;20837;-73
2022/11/19 10:40:42;;;;;;;15.10;12.00;;;2.30;99.90;;;;;;5060421;28;20263;-73
2022/11/19 10:43:17;;;;;;;16.00;11.77;;;2.30;99.90;;;;;;5060202;28;20198;-73
2022/11/19 10:45:44;;;;;;;15.83;12.10;;;2.30;99.90;;;;;;5060228;28;20271;-73
2022/11/19 10:48:17;;;;;;;16.57;12.90;;;2.30;99.90;;;;;;5056595;28;20236;-72
2022/11/19 10:50:44;;;;;;;18.93;14.63;;;2.20;99.90;;;;;;5057249;28;20271;-73
2022/11/19 10:53:16;;;;;;;17.60;13.13;;;2.30;99.90;;;;;;5056522;28;20201;-73
2022/11/19 10:55:48;;;;;;;16.03;12.53;;;2.40;99.90;;;;;;5055945;28;20259;-73
2022/11/19 10:58:23;;;;;;;19.43;13.83;;;2.50;99.90;;;;;;5055918;28;20201;-73
2022/11/19 11:00:53;;;;;;;16.07;12.70;;;2.50;99.90;;;;;;5055865;28;20251;-71
2022/11/19 11:03:25;;;;;;;17.63;13.87;;;2.50;99.90;;;;;;5055674;28;20652;-71
2022/11/19 11:05:57;;;;;;;18.93;14.70;;;2.40;99.90;;;;;;5055885;28;20198;-74
2022/11/19 11:08:24;;;;;;;18.87;14.57;;;2.40;99.90;;;;;;5055517;28;20229;-73
2022/11/19 11:10:51;;;;;;;18.53;14.60;;;2.40;99.90;;;;;;5055595;28;20249;-73
2022/11/19 11:16:22;;;;;;;20.80;14.67;;;2.40;99.90;;;;;;5055434;28;20209;-73
2022/11/19 11:18:52;;;;;;;18.47;13.90;;;2.40;99.90;;;;;;5055585;28;20247;-73
2022/11/19 11:21:29;;;;;;;22.90;15.53;;;2.50;99.90;;;;;;5055358;28;20201;-73
2022/11/19 11:23:56;;;;;;;19.17;15.03;;;2.50;99.90;;;;;;5055192;28;20252;-73
2022/11/19 11:26:25;;;;;;;22.83;15.77;;;2.50;99.90;;;;;;5055521;28;20205;-73
2022/11/19 11:28:59;;;;;;;18.40;13.90;;;2.50;99.90;;;;;;5055130;28;20467;-72
2022/11/19 11:31:34;;;;;;;19.07;14.50;;;2.40;99.90;;;;;;5055282;28;20197;-73
2022/11/19 11:34:02;;;;;;;17.20;13.73;;;2.40;99.90;;;;;;5054900;28;20197;-74
2022/11/19 11:36:31;;;;;;;21.33;15.20;;;2.40;99.90;;;;;;5055446;28;20294;-75
2022/11/19 11:39:00;;;;;;;19.33;13.90;;;2.40;99.90;;;;;;5055719;28;20198;-74
2022/11/19 11:41:35;;;;;;;20.37;14.73;;;2.30;99.90;;;;;;5055372;28;20208;-74
2022/11/19 11:44:07;;;;;;;19.20;14.10;;;2.40;99.90;;;;;;5054993;28;20233;-74
2022/11/19 11:46:41;;;;;;;18.97;14.30;;;2.40;99.90;;;;;;5055025;28;20205;-72
2022/11/19 11:49:19;;;;;;;18.73;13.47;;;2.50;99.90;;;;;;5054894;28;20202;-72
2022/11/19 11:51:45;;;;;;;18.80;14.57;;;2.50;99.90;;;;;;5054931;28;20201;-72
2022/11/19 11:54:17;;;;;;;20.37;14.93;;;2.50;99.90;;;;;;5055294;28;20263;-72
2022/11/19 11:56:44;;;;;;;18.37;14.13;;;2.50;99.90;;;;;;5054999;28;20243;-72
2022/11/19 11:59:25;;;;;;;16.97;13.43;;;2.50;99.90;;;;;;5054573;28;20199;-72
2022/11/19 12:01:56;;;;;;;19.17;13.80;;;2.40;99.90;;;;;;5054988;28;20205;-73
2022/11/19 12:04:24;;;;;;;19.53;14.53;;;2.30;99.90;;;;;;5055387;28;20252;-72
2022/11/19 12:07:04;;;;;;;19.17;14.13;;;2.40;99.90;;;;;;5054568;28;20656;-72
2022/11/19 12:09:41;;;;;;;22.33;15.00;;;2.40;99.90;;;;;;5054261;28;20222;-72
2022/11/19 12:12:16;;;;;;;19.17;14.07;;;2.40;99.90;;;;;;5054554;28;20252;-72
2022/11/19 12:14:50;;;;;;;20.13;14.60;;;2.30;99.90;;;;;;5054400;28;20194;-72
2022/11/19 12:17:29;;;;;;;20.03;14.23;;;2.30;99.90;;;;;;5054519;28;20251;-72
2022/11/19 12:20:22;;;;;;;18.10;13.50;;;2.30;99.90;;;;;;5054397;28;20210;-73
2022/11/19 12:23:06;;;;;;;18.43;13.07;;;2.30;99.90;;;;;;5054985;28;20243;-72
2022/11/19 12:25:39;;;;;;;18.27;13.40;;;2.20;99.90;;;;;;5054268;28;20201;-72
2022/11/19 12:28:27;;;;;;;17.20;12.73;;;2.20;99.90;;;;;;5053971;28;20653;-72
2022/11/19 12:31:05;;;;;;;16.83;12.80;;;2.20;99.90;;;;;;5054277;28;20225;-72
2022/11/19 12:34:01;;;;;;;17.30;12.87;;;2.20;99.90;;;;;;5053913;28;20661;-72
2022/11/19 12:36:36;;;;;;;16.23;12.23;;;2.20;99.90;;;;;;5053824;28;20565;-72
2022/11/19 12:39:14;;;;;;;18.30;13.33;;;2.10;99.90;;;;;;5053852;28;20787;-72
2022/11/19 12:41:53;;;;;;;16.63;12.43;;;2.10;99.90;;;;;;5053742;28;20251;-72
2022/11/19 12:44:34;;;;;;;17.30;13.10;;;2.20;99.90;;;;;;5053978;28;20209;-72
2022/11/19 12:47:12;;;;;;;17.27;11.87;;;2.20;99.90;;;;;;5056523;28;20251;-72
2022/11/19 12:49:59;;;;;;;18.53;12.57;;;2.20;99.90;;;;;;5060519;28;20284;-73
2022/11/19 12:52:55;;;;;;;18.03;12.60;;;2.20;99.90;;;;;;5059461;28;20255;-72
2022/11/19 12:55:32;;;;;;;19.70;13.63;;;2.30;99.90;;;;;;5054861;28;20201;-72
2022/11/19 12:58:06;;;;;;;17.17;12.33;;;2.40;99.90;;;;;;5055525;28;20197;-73
2022/11/19 13:00:37;;;;;;;15.70;11.83;;;2.40;99.90;;;;;;5054765;28;20259;-72
2022/11/19 13:03:13;;;;;;;14.70;11.47;;;2.40;99.90;;;;;;5053453;28;20235;-70
2022/11/19 13:05:47;;;;;;;15.47;10.97;;;2.30;99.90;;;;;;5053216;28;20198;-74
2022/11/19 13:08:21;;;;;;;13.30;9.97;;;2.40;99.90;;;;;;5053373;28;20233;-72
2022/11/19 13:10:52;;;;;;;12.83;9.97;;;2.30;99.90;;;;;;5052526;28;20224;-71
2022/11/19 13:13:25;;;;;;;12.67;9.63;;;2.30;99.90;;;;;;5053630;28;20285;-73
2022/11/19 13:15:57;;;;;;;12.17;9.53;;;2.30;99.90;;;;;;5053290;28;20251;-70
2022/11/19 13:18:29;;;;;;;11.63;9.37;;;2.30;99.90;;;;;;5053056;28;20193;-71
2022/11/19 13:21:00;;;;;;;11.30;9.23;;;2.30;99.90;;;;;;5053302;28;20281;-71
2022/11/19 13:23:31;;;;;;;11.07;8.53;;;2.30;99.90;;;;;;5053443;28;20201;-72